createdAt,value
2023-05-14T00:00:04.127Z,100.00
2023-05-14T00:02:42.124Z,100.00
2023-05-14T00:05:17.687Z,100.00
2023-05-14T00:07:47.105Z,100.00
2023-05-14T00:10:15.785Z,100.00
2023-05-14T00:12:49.262Z,100.00
2023-05-14T00:15:20.433Z,100.00
2023-05-14T00:17:55.927Z,100.00
2023-05-14T00:20:28.067Z,100.00
2023-05-14T00:23:01.200Z,100.00
2023-05-14T00:25:29.774Z,100.00
2023-05-14T00:28:02.857Z,100.00
2023-05-14T00:30:31.092Z,100.00
2023-05-14T00:33:02.195Z,100.00
2023-05-14T00:35:31.049Z,100.00
2023-05-14T00:37:59.597Z,100.00
2023-05-14T00:40:29.918Z,100.00
2023-05-14T00:43:03.182Z,100.00
2023-05-14T00:45:31.859Z,100.00
2023-05-14T00:48:03.415Z,100.00
2023-05-14T00:50:32.058Z,100.00
2023-05-14T00:53:04.162Z,100.00
2023-05-14T00:55:37.860Z,100.00
2023-05-14T00:58:10.215Z,100.00
2023-05-14T01:00:39.930Z,100.00
2023-05-14T01:03:08.964Z,100.00
2023-05-14T01:05:45.956Z,100.00
2023-05-14T01:08:27.466Z,100.00
2023-05-14T01:11:04.442Z,100.00
2023-05-14T01:13:45.396Z,100.00
2023-05-14T01:16:17.116Z,100.00
2023-05-14T01:18:47.537Z,100.00
2023-05-14T01:21:37.467Z,100.00
2023-05-14T01:24:06.632Z,100.00
2023-05-14T01:26:35.456Z,100.00
2023-05-14T01:29:12.401Z,100.00
2023-05-14T01:31:44.294Z,100.00
2023-05-14T01:34:14.922Z,100.00
2023-05-14T01:36:45.678Z,100.00
2023-05-14T01:39:17.066Z,100.00
2023-05-14T01:41:46.704Z,100.00
2023-05-14T01:44:17.767Z,100.00
2023-05-14T01:46:45.950Z,100.00
2023-05-14T01:49:14.139Z,100.00
2023-05-14T01:51:42.433Z,100.00
2023-05-14T01:54:12.242Z,100.00
2023-05-14T01:56:40.306Z,100.00
2023-05-14T01:59:08.786Z,100.00
2023-05-14T02:01:37.906Z,100.00
2023-05-14T02:04:08.044Z,100.00
2023-05-14T02:06:36.773Z,100.00
2023-05-14T02:09:06.636Z,100.00
2023-05-14T02:11:37.292Z,100.00
2023-05-14T02:14:05.704Z,100.00
2023-05-14T02:16:34.214Z,100.00
2023-05-14T02:19:03.873Z,100.00
2023-05-14T02:21:32.076Z,100.00
2023-05-14T02:24:00.698Z,100.00
2023-05-14T02:26:28.956Z,100.00
2023-05-14T02:29:00.638Z,100.00
2023-05-14T02:31:29.103Z,100.00
2023-05-14T02:33:57.458Z,100.00
2023-05-14T02:36:26.028Z,100.00
2023-05-14T02:38:54.561Z,100.00
2023-05-14T02:41:23.721Z,100.00
2023-05-14T02:43:57.053Z,100.00
2023-05-14T02:46:27.716Z,100.00
2023-05-14T02:48:56.873Z,100.00
2023-05-14T02:51:25.009Z,100.00
2023-05-14T02:53:53.336Z,100.00
2023-05-14T02:56:22.273Z,100.00
2023-05-14T02:58:51.308Z,100.00
2023-05-14T03:01:19.960Z,100.00
2023-05-14T03:03:50.790Z,100.00
2023-05-14T03:06:21.274Z,100.00
2023-05-14T03:08:50.799Z,100.00
2023-05-14T03:11:19.970Z,100.00
2023-05-14T03:13:48.590Z,100.00
2023-05-14T03:16:17.725Z,100.00
2023-05-14T03:18:46.324Z,100.00
2023-05-14T03:21:16.488Z,100.00
2023-05-14T03:23:44.950Z,100.00
2023-05-14T03:26:14.334Z,100.00
2023-05-14T03:28:42.458Z,100.00
2023-05-14T03:31:12.784Z,100.00
2023-05-14T03:33:41.208Z,100.00
2023-05-14T03:36:09.768Z,100.00
2023-05-14T03:38:39.484Z,100.00
2023-05-14T03:41:07.579Z,100.00
2023-05-14T03:43:36.152Z,100.00
2023-05-14T03:46:04.385Z,100.00
2023-05-14T03:48:32.677Z,100.00
2023-05-14T03:51:00.884Z,100.00
2023-05-14T03:53:29.646Z,100.00
2023-05-14T03:56:01.912Z,100.00
2023-05-14T03:58:30.982Z,100.00
2023-05-14T04:01:00.249Z,100.00
2023-05-14T04:03:29.081Z,100.00
2023-05-14T04:05:59.693Z,100.00
2023-05-14T04:08:28.901Z,100.00
2023-05-14T04:11:00.009Z,100.00
2023-05-14T04:13:28.199Z,100.00
2023-05-14T04:15:56.503Z,100.00
2023-05-14T04:18:25.572Z,100.00
2023-05-14T04:20:53.952Z,100.00
2023-05-14T04:23:23.119Z,100.00
2023-05-14T04:25:51.168Z,100.00
2023-05-14T04:28:20.763Z,100.00
2023-05-14T04:30:50.156Z,100.00
2023-05-14T04:33:18.439Z,100.00
2023-05-14T04:35:47.743Z,100.00
2023-05-14T04:38:15.950Z,100.00
2023-05-14T04:40:45.473Z,100.00
2023-05-14T04:43:13.805Z,100.00
2023-05-14T04:45:43.191Z,100.00
2023-05-14T04:48:12.253Z,100.00
2023-05-14T04:50:42.438Z,100.00
2023-05-14T04:53:10.992Z,100.00
2023-05-14T04:55:39.145Z,100.00
2023-05-14T04:58:07.217Z,100.00
2023-05-14T05:00:35.457Z,100.00
2023-05-14T05:03:05.717Z,100.00
2023-05-14T05:05:35.241Z,100.00
2023-05-14T05:08:04.179Z,100.00
2023-05-14T05:10:32.548Z,100.00
2023-05-14T05:13:01.961Z,100.00
2023-05-14T05:15:30.345Z,100.00
2023-05-14T05:17:58.696Z,100.00
2023-05-14T05:20:29.166Z,100.00
2023-05-14T05:22:57.508Z,100.00
2023-05-14T05:25:25.941Z,100.00
2023-05-14T05:27:54.196Z,100.00
2023-05-14T05:30:22.426Z,100.00
2023-05-14T05:32:50.986Z,100.00
2023-05-14T05:35:19.606Z,100.00
2023-05-14T05:37:49.327Z,100.00
2023-05-14T05:40:18.262Z,100.00
2023-05-14T05:42:46.481Z,100.00
2023-05-14T05:45:14.643Z,100.00
2023-05-14T05:47:42.848Z,100.00
2023-05-14T05:50:13.521Z,100.00
2023-05-14T05:52:42.260Z,100.00
2023-05-14T05:55:12.349Z,100.00
2023-05-14T05:57:41.075Z,100.00
2023-05-14T06:00:13.941Z,100.00
2023-05-14T06:02:44.153Z,100.00
2023-05-14T06:05:13.285Z,100.00
2023-05-14T06:07:42.034Z,100.00
2023-05-14T06:10:10.316Z,100.00
2023-05-14T06:12:40.496Z,100.00
2023-05-14T06:15:09.494Z,100.00
2023-05-14T06:17:38.147Z,100.00
2023-05-14T06:20:09.006Z,100.00
2023-05-14T06:22:38.751Z,100.00
2023-05-14T06:25:08.812Z,100.00
2023-05-14T06:27:37.693Z,100.00
2023-05-14T06:30:09.247Z,100.00
2023-05-14T06:32:38.604Z,100.00
2023-05-14T06:35:09.483Z,100.00
2023-05-14T06:37:38.007Z,100.00
2023-05-14T06:40:08.154Z,100.00
2023-05-14T06:42:36.631Z,100.00
2023-05-14T06:45:09.848Z,100.00
2023-05-14T06:47:38.357Z,100.00
2023-05-14T06:52:35.664Z,100.00
2023-05-14T06:55:04.244Z,100.00
2023-05-14T06:57:34.026Z,100.00
2023-05-14T07:00:03.760Z,100.00
2023-05-14T07:02:33.461Z,100.00
2023-05-14T07:05:01.924Z,100.00
2023-05-14T07:07:30.543Z,100.00
2023-05-14T07:09:58.962Z,100.00
2023-05-14T07:12:27.346Z,100.00
2023-05-14T07:14:57.020Z,100.00
2023-05-14T07:17:25.731Z,100.00
2023-05-14T07:19:56.019Z,100.00
2023-05-14T07:22:24.540Z,100.00
2023-05-14T07:24:52.749Z,100.00
2023-05-14T07:27:20.984Z,100.00
2023-05-14T07:29:49.350Z,100.00
2023-05-14T07:32:17.752Z,100.00
2023-05-14T07:34:47.490Z,100.00
2023-05-14T07:37:17.371Z,100.00
2023-05-14T07:39:45.592Z,100.00
2023-05-14T07:42:21.954Z,100.00
2023-05-14T07:44:56.664Z,100.00
2023-05-14T07:47:24.872Z,94.16
2023-05-14T07:49:56.141Z,94.72
2023-05-14T07:52:26.200Z,100.00
2023-05-14T07:54:55.345Z,90.35
2023-05-14T07:57:23.861Z,83.93
2023-05-14T07:59:51.938Z,84.46
2023-05-14T08:02:20.398Z,90.20
2023-05-14T08:04:48.522Z,87.91
2023-05-14T08:07:17.519Z,81.42
2023-05-14T08:09:48.558Z,84.34
2023-05-14T08:12:18.232Z,98.45
2023-05-14T08:14:46.339Z,91.41
2023-05-14T08:17:16.836Z,84.53
2023-05-14T08:19:45.574Z,82.67
2023-05-14T08:22:14.145Z,80.16
2023-05-14T08:24:43.254Z,81.09
2023-05-14T08:27:12.820Z,88.11
2023-05-14T08:29:41.836Z,83.43
2023-05-14T08:32:22.096Z,82.20
2023-05-14T08:34:52.095Z,79.66
2023-05-14T08:37:20.694Z,78.38
2023-05-14T08:39:48.886Z,74.60
2023-05-14T08:42:22.325Z,83.59
2023-05-14T08:44:54.807Z,70.44
2023-05-14T08:47:23.451Z,70.49
2023-05-14T08:49:59.112Z,68.02
2023-05-14T08:52:27.718Z,67.62
2023-05-14T08:54:57.172Z,67.50
2023-05-14T08:57:32.374Z,70.76
2023-05-14T09:00:01.477Z,68.51
2023-05-14T09:02:31.671Z,68.97
2023-05-14T09:05:03.796Z,70.10
2023-05-14T09:07:33.129Z,71.14
2023-05-14T09:10:03.050Z,65.76
2023-05-14T09:12:33.817Z,71.68
2023-05-14T09:15:02.211Z,63.68
2023-05-14T09:17:30.572Z,66.75
2023-05-14T09:20:01.330Z,67.45
2023-05-14T09:22:31.768Z,73.87
2023-05-14T09:25:05.425Z,71.23
2023-05-14T09:27:35.331Z,69.31
2023-05-14T09:30:09.455Z,65.24
2023-05-14T09:32:43.831Z,70.68
2023-05-14T09:35:17.965Z,77.08
2023-05-14T09:37:48.396Z,80.95
2023-05-14T09:40:18.642Z,82.20
2023-05-14T09:42:49.363Z,81.94
2023-05-14T09:45:18.637Z,90.95
2023-05-14T09:47:47.860Z,100.00
2023-05-14T09:50:16.678Z,89.84
2023-05-14T09:52:44.877Z,87.56
2023-05-14T09:55:13.478Z,87.47
2023-05-14T09:57:42.284Z,85.65
2023-05-14T10:00:14.100Z,87.79
2023-05-14T10:02:46.783Z,87.95
2023-05-14T10:05:16.398Z,91.19
2023-05-14T10:07:47.704Z,91.42
2023-05-14T10:10:20.337Z,84.16
2023-05-14T10:12:54.353Z,85.57
2023-05-14T10:15:30.993Z,86.02
2023-05-14T10:18:04.802Z,80.58
2023-05-14T10:20:33.425Z,81.48
2023-05-14T10:23:02.629Z,84.38
2023-05-14T10:25:31.610Z,81.19
2023-05-14T10:27:59.983Z,83.01
2023-05-14T10:30:30.140Z,85.44
2023-05-14T10:33:15.516Z,86.03
2023-05-14T10:35:58.880Z,90.32
2023-05-14T10:38:28.309Z,91.63
2023-05-14T10:40:59.144Z,91.17
2023-05-14T10:43:30.796Z,93.10
2023-05-14T10:46:02.841Z,98.42
2023-05-14T10:48:31.104Z,87.29
2023-05-14T10:50:59.393Z,86.42
2023-05-14T10:53:34.142Z,86.80
2023-05-14T10:56:07.714Z,85.59
2023-05-14T10:58:39.924Z,94.20
2023-05-14T11:01:11.791Z,82.89
2023-05-14T11:03:42.801Z,79.73
2023-05-14T11:06:13.163Z,82.18
2023-05-14T11:08:43.970Z,86.00
2023-05-14T11:11:12.849Z,81.16
2023-05-14T11:13:42.487Z,81.69
2023-05-14T11:16:22.438Z,76.90
2023-05-14T11:18:55.174Z,78.11
2023-05-14T11:21:23.651Z,76.90
2023-05-14T11:23:51.923Z,82.36
2023-05-14T11:26:21.629Z,79.65
2023-05-14T11:28:50.629Z,77.01
2023-05-14T11:31:20.379Z,70.99
2023-05-14T11:33:48.689Z,71.24
2023-05-14T11:36:17.192Z,70.54
2023-05-14T11:38:50.807Z,76.11
2023-05-14T11:41:21.828Z,81.68
2023-05-14T11:43:50.324Z,75.06
2023-05-14T11:46:20.166Z,75.19
2023-05-14T11:48:48.801Z,77.20
2023-05-14T11:51:17.226Z,77.09
2023-05-14T11:53:46.927Z,79.72
2023-05-14T11:56:15.133Z,81.67
2023-05-14T11:58:49.658Z,80.79
2023-05-14T12:01:18.221Z,88.16
2023-05-14T12:03:48.219Z,82.16
2023-05-14T12:06:16.654Z,86.04
2023-05-14T12:08:45.005Z,89.00
2023-05-14T12:11:13.499Z,86.88
2023-05-14T12:13:42.202Z,90.94
2023-05-14T12:16:10.595Z,98.08
2023-05-14T12:18:39.226Z,91.69
2023-05-14T12:21:09.830Z,93.92
2023-05-14T12:23:39.905Z,100.00
2023-05-14T12:26:10.180Z,98.54
2023-05-14T12:28:43.372Z,100.00
2023-05-14T12:31:13.709Z,100.00
2023-05-14T12:33:42.026Z,99.25
2023-05-14T12:36:21.265Z,95.39
2023-05-14T12:38:52.613Z,92.44
2023-05-14T12:41:21.559Z,100.00
2023-05-14T12:43:50.494Z,97.31
2023-05-14T12:46:18.830Z,92.67
2023-05-14T12:48:49.269Z,92.75
2023-05-14T12:51:20.486Z,92.17
2023-05-14T12:53:49.653Z,88.21
2023-05-14T12:56:18.200Z,94.27
2023-05-14T12:58:47.316Z,91.71
2023-05-14T13:01:16.535Z,98.90
2023-05-14T13:03:45.217Z,93.53
2023-05-14T13:06:13.792Z,92.42
2023-05-14T13:08:44.743Z,85.20
2023-05-14T13:11:12.860Z,83.75
2023-05-14T13:13:41.744Z,80.56
2023-05-14T13:16:10.611Z,77.49
2023-05-14T13:18:39.516Z,82.23
2023-05-14T13:21:08.627Z,82.62
2023-05-14T13:23:37.129Z,82.45
2023-05-14T13:26:09.751Z,76.49
2023-05-14T13:28:37.975Z,80.33
2023-05-14T13:31:10.276Z,80.03
2023-05-14T13:33:40.694Z,75.63
2023-05-14T13:36:10.168Z,79.30
2023-05-14T13:38:38.620Z,79.73
2023-05-14T13:41:08.486Z,78.48
2023-05-14T13:43:40.364Z,77.98
2023-05-14T13:46:08.958Z,81.31
2023-05-14T13:48:37.395Z,80.09
2023-05-14T13:51:06.596Z,80.56
2023-05-14T13:53:35.419Z,83.40
2023-05-14T13:56:03.703Z,82.13
2023-05-14T13:58:32.337Z,85.14
2023-05-14T14:01:04.611Z,81.39
2023-05-14T14:03:32.883Z,77.72
2023-05-14T14:06:01.373Z,73.01
2023-05-14T14:08:29.557Z,72.80
2023-05-14T14:10:58.270Z,73.63
2023-05-14T14:13:27.788Z,69.65
2023-05-14T14:15:56.988Z,67.36
2023-05-14T14:18:28.072Z,67.63
2023-05-14T14:20:56.548Z,61.37
2023-05-14T14:23:24.863Z,60.94
2023-05-14T14:25:54.054Z,62.33
2023-05-14T14:28:22.441Z,62.14
2023-05-14T14:30:51.494Z,64.48
2023-05-14T14:33:19.778Z,60.12
2023-05-14T14:35:50.306Z,60.04
2023-05-14T14:38:18.258Z,58.25
2023-05-14T14:40:47.174Z,56.06
2023-05-14T14:43:15.347Z,62.41
2023-05-14T14:45:48.219Z,63.95
2023-05-14T14:48:28.152Z,62.21
2023-05-14T14:50:57.844Z,63.24
2023-05-14T14:53:26.621Z,62.50
2023-05-14T14:55:55.778Z,58.01
2023-05-14T14:58:25.084Z,57.66
2023-05-14T15:00:58.141Z,61.30
2023-05-14T15:03:26.947Z,58.41
2023-05-14T15:05:55.257Z,61.44
2023-05-14T15:08:27.609Z,60.64
2023-05-14T15:10:56.589Z,58.49
2023-05-14T15:13:25.712Z,58.16
2023-05-14T15:15:54.014Z,57.42
2023-05-14T15:18:22.361Z,58.42
2023-05-14T15:20:50.875Z,61.12
2023-05-14T15:23:19.027Z,58.58
2023-05-14T15:25:49.467Z,59.53
2023-05-14T15:28:18.140Z,60.22
2023-05-14T15:30:50.061Z,60.92
2023-05-14T15:33:19.435Z,59.10
2023-05-14T15:35:47.802Z,59.25
2023-05-14T15:38:16.207Z,59.32
2023-05-14T15:40:44.510Z,62.24
2023-05-14T15:43:14.371Z,61.09
2023-05-14T15:45:44.945Z,60.78
2023-05-14T15:48:13.205Z,60.38
2023-05-14T15:50:43.934Z,61.06
2023-05-14T15:53:12.622Z,59.74
2023-05-14T15:55:41.065Z,58.49
2023-05-14T15:58:09.475Z,57.79
2023-05-14T16:00:38.927Z,61.32
2023-05-14T16:03:07.000Z,58.54
2023-05-14T16:05:35.437Z,59.45
2023-05-14T16:08:08.063Z,58.58
2023-05-14T16:10:41.025Z,59.43
2023-05-14T16:13:09.143Z,61.81
2023-05-14T16:15:40.431Z,63.33
2023-05-14T16:18:09.183Z,64.52
2023-05-14T16:20:37.540Z,62.05
2023-05-14T16:23:05.707Z,59.45
2023-05-14T16:25:34.926Z,61.07
2023-05-14T16:28:03.145Z,61.28
2023-05-14T16:30:31.404Z,58.60
2023-05-14T16:33:02.261Z,58.99
2023-05-14T16:35:30.541Z,57.79
2023-05-14T16:37:59.604Z,58.63
2023-05-14T16:40:28.032Z,60.14
2023-05-14T16:42:56.259Z,63.47
2023-05-14T16:45:24.920Z,64.22
2023-05-14T16:47:53.705Z,65.18
2023-05-14T16:50:23.389Z,66.68
2023-05-14T16:52:52.603Z,64.99
2023-05-14T16:55:21.094Z,65.99
2023-05-14T16:57:49.619Z,64.84
2023-05-14T17:00:18.047Z,65.34
2023-05-14T17:02:49.024Z,66.17
2023-05-14T17:05:17.862Z,65.79
2023-05-14T17:07:50.223Z,67.27
2023-05-14T17:10:19.188Z,68.95
2023-05-14T17:12:47.428Z,68.88
2023-05-14T17:15:15.951Z,68.40
2023-05-14T17:17:45.030Z,69.04
2023-05-14T17:20:16.823Z,72.48
2023-05-14T17:22:45.449Z,69.09
2023-05-14T17:25:15.708Z,69.19
2023-05-14T17:27:44.094Z,69.11
2023-05-14T17:30:14.080Z,68.81
2023-05-14T17:32:42.694Z,66.39
2023-05-14T17:35:11.664Z,66.19
2023-05-14T17:37:42.849Z,68.38
2023-05-14T17:40:12.364Z,70.58
2023-05-14T17:42:42.542Z,72.11
2023-05-14T17:45:11.515Z,72.78
2023-05-14T17:47:40.258Z,73.64
2023-05-14T17:50:09.797Z,77.45
2023-05-14T17:52:38.720Z,77.97
2023-05-14T17:55:07.268Z,80.48
2023-05-14T17:57:35.563Z,86.78
2023-05-14T18:00:06.229Z,100.00
2023-05-14T18:02:41.784Z,100.00
2023-05-14T18:05:10.465Z,100.00
2023-05-14T18:07:39.022Z,100.00
2023-05-14T18:10:10.774Z,100.00
2023-05-14T18:12:40.694Z,100.00
2023-05-14T18:15:12.273Z,100.00
2023-05-14T18:17:40.628Z,100.00
2023-05-14T18:20:11.189Z,100.00
2023-05-14T18:22:39.692Z,100.00
2023-05-14T18:25:09.900Z,100.00
2023-05-14T18:27:44.088Z,100.00
2023-05-14T18:30:17.501Z,100.00
2023-05-14T18:32:46.911Z,100.00
2023-05-14T18:35:15.898Z,100.00
2023-05-14T18:37:44.149Z,100.00
2023-05-14T18:40:15.599Z,100.00
2023-05-14T18:42:45.673Z,100.00
2023-05-14T18:45:15.897Z,100.00
2023-05-14T18:47:45.228Z,100.00
2023-05-14T18:50:13.395Z,100.00
2023-05-14T18:52:46.256Z,100.00
2023-05-14T18:55:29.031Z,100.00
2023-05-14T18:57:58.746Z,100.00
2023-05-14T19:00:28.591Z,100.00
2023-05-14T19:02:57.825Z,100.00
2023-05-14T19:05:26.684Z,100.00
2023-05-14T19:07:55.996Z,100.00
2023-05-14T19:10:24.123Z,100.00
2023-05-14T19:12:52.387Z,100.00
2023-05-14T19:15:21.084Z,100.00
2023-05-14T19:17:52.349Z,100.00
2023-05-14T19:20:20.905Z,100.00
2023-05-14T19:22:49.625Z,100.00
2023-05-14T19:25:18.551Z,100.00
2023-05-14T19:27:51.269Z,100.00
2023-05-14T19:30:21.479Z,100.00
2023-05-14T19:32:51.421Z,100.00
2023-05-14T19:35:19.677Z,100.00
2023-05-14T19:37:47.800Z,100.00
2023-05-14T19:40:16.217Z,100.00
2023-05-14T19:42:45.500Z,100.00
2023-05-14T19:45:13.908Z,100.00
2023-05-14T19:47:43.495Z,100.00
2023-05-14T19:50:12.995Z,100.00
2023-05-14T19:52:41.448Z,100.00
2023-05-14T19:55:10.280Z,100.00
2023-05-14T19:57:41.346Z,100.00
2023-05-14T20:00:10.660Z,100.00
2023-05-14T20:02:41.016Z,100.00
2023-05-14T20:05:10.862Z,100.00
2023-05-14T20:07:40.690Z,100.00
2023-05-14T20:10:10.836Z,100.00
2023-05-14T20:12:39.051Z,100.00
2023-05-14T20:15:07.911Z,100.00
2023-05-14T20:17:37.128Z,100.00
2023-05-14T20:20:06.868Z,100.00
2023-05-14T20:22:35.150Z,100.00
2023-05-14T20:25:05.408Z,100.00
2023-05-14T20:27:34.137Z,100.00
2023-05-14T20:30:02.905Z,100.00
2023-05-14T20:32:31.331Z,100.00
2023-05-14T20:35:02.306Z,100.00
2023-05-14T20:37:32.404Z,100.00
2023-05-14T20:40:04.797Z,100.00
2023-05-14T20:42:36.285Z,100.00
2023-05-14T20:45:07.035Z,100.00
2023-05-14T20:47:36.244Z,100.00
2023-05-14T20:50:05.162Z,100.00
2023-05-14T20:52:33.351Z,100.00
2023-05-14T20:55:02.291Z,100.00
2023-05-14T20:57:31.977Z,100.00
2023-05-14T21:00:01.932Z,100.00
2023-05-14T21:02:31.629Z,100.00
2023-05-14T21:05:01.533Z,100.00
2023-05-14T21:07:30.355Z,100.00
2023-05-14T21:09:58.452Z,100.00
2023-05-14T21:12:28.951Z,100.00
2023-05-14T21:15:01.458Z,100.00
2023-05-14T21:17:42.788Z,100.00
2023-05-14T21:20:13.368Z,100.00
2023-05-14T21:22:41.660Z,100.00
2023-05-14T21:25:11.312Z,100.00
2023-05-14T21:27:42.538Z,100.00
2023-05-14T21:30:14.502Z,100.00
2023-05-14T21:32:42.764Z,100.00
2023-05-14T21:35:11.131Z,100.00
2023-05-14T21:37:42.513Z,100.00
2023-05-14T21:40:13.414Z,100.00
2023-05-14T21:42:43.805Z,100.00
2023-05-14T21:45:13.679Z,100.00
2023-05-14T21:47:45.756Z,100.00
2023-05-14T21:50:15.050Z,100.00
2023-05-14T21:52:44.005Z,100.00
2023-05-14T21:55:12.624Z,100.00
2023-05-14T21:57:46.980Z,100.00
2023-05-14T22:00:23.279Z,100.00
2023-05-14T22:02:54.321Z,100.00
2023-05-14T22:05:23.489Z,100.00
2023-05-14T22:07:52.490Z,100.00
2023-05-14T22:10:21.081Z,100.00
2023-05-14T22:12:49.452Z,100.00
2023-05-14T22:15:19.210Z,100.00
2023-05-14T22:17:48.201Z,100.00
2023-05-14T22:20:16.418Z,100.00
2023-05-14T22:22:44.673Z,100.00
2023-05-14T22:25:12.765Z,100.00
2023-05-14T22:27:40.973Z,100.00
2023-05-14T22:30:10.172Z,100.00
2023-05-14T22:32:39.701Z,100.00
2023-05-14T22:35:09.004Z,100.00
2023-05-14T22:37:37.209Z,100.00
2023-05-14T22:40:07.433Z,100.00
2023-05-14T22:42:36.229Z,100.00
2023-05-14T22:45:04.741Z,100.00
2023-05-14T22:47:36.211Z,100.00
2023-05-14T22:50:11.530Z,100.00
2023-05-14T22:52:42.633Z,100.00
2023-05-14T22:55:11.510Z,100.00
2023-05-14T22:57:42.192Z,100.00
2023-05-14T23:00:12.690Z,100.00
2023-05-14T23:02:40.929Z,100.00
2023-05-14T23:05:12.856Z,100.00
2023-05-14T23:07:41.622Z,100.00
2023-05-14T23:10:11.396Z,100.00
2023-05-14T23:12:39.870Z,100.00
2023-05-14T23:15:08.841Z,100.00
2023-05-14T23:17:37.193Z,100.00
2023-05-14T23:20:06.644Z,100.00
2023-05-14T23:22:37.074Z,100.00
2023-05-14T23:25:06.496Z,100.00
2023-05-14T23:27:36.533Z,100.00
2023-05-14T23:30:05.130Z,100.00
2023-05-14T23:32:33.495Z,100.00
2023-05-14T23:35:02.412Z,100.00
2023-05-14T23:37:33.952Z,100.00
2023-05-14T23:40:04.437Z,100.00
2023-05-14T23:42:32.599Z,100.00
2023-05-14T23:45:01.143Z,100.00
2023-05-14T23:47:29.308Z,100.00
2023-05-14T23:49:57.494Z,100.00
2023-05-14T23:52:27.274Z,100.00
2023-05-14T23:54:55.186Z,100.00
2023-05-14T23:57:25.928Z,100.00
2023-05-14T23:59:55.451Z,100.00
